Flight Track Log - Related Links

Times and Time Zones

All times are in EST time to prevent confusion due to time zone crossing. See the AMX203 flight status page for this flight to view local times or setup timezone preferences in your user account.

Time Position Orientation Groundspeed Altitude Reporting Facility
EST Latitude Longitude Course Direction KTS MPH feet Rate Location/Type
Thu 08:36:00 PM 24.9749 -102.9691 146° Southeast  Level Estimated
Thu 08:37:00 PM 24.9007 -102.9143 146° Southeast  Level Estimated
Thu 08:38:00 PM 24.8264 -102.8594 146° Southeast  Level Estimated
Thu 08:39:00 PM 24.7521 -102.8047 146° Southeast  Level Estimated
Thu 08:40:00 PM 24.6778 -102.7500 146° Southeast  Level Estimated
Thu 08:41:00 PM 24.6034 -102.6954 146° Southeast  Level Estimated
Thu 08:42:00 PM 24.5291 -102.6408 146° Southeast  Level Estimated
Thu 08:43:00 PM 24.4547 -102.5863 146° Southeast  Level Estimated
Thu 08:44:00 PM 24.3803 -102.5319 146° Southeast  Level Estimated
Thu 08:45:00 PM 24.3059 -102.4776 146° Southeast  Level Estimated
Thu 08:46:00 PM 24.2314 -102.4233 146° Southeast  Level Estimated
Thu 08:47:00 PM 24.1570 -102.3690 146° Southeast  Level Estimated
Thu 08:48:00 PM 24.0825 -102.3149 146° Southeast  Level Estimated
Thu 08:49:00 PM 24.0080 -102.2608 146° Southeast  Level Estimated
Thu 08:50:00 PM 23.9335 -102.2067 146° Southeast  Level Estimated
Thu 08:51:00 PM 23.8590 -102.1527 146° Southeast  Level Estimated
Thu 08:52:00 PM 23.7844 -102.0988 146° Southeast  Level Estimated
Thu 08:53:00 PM 23.7099 -102.0450 147° Southeast  Level Estimated
Thu 08:54:00 PM 23.6353 -101.9912 147° Southeast  Level Estimated
Thu 08:55:00 PM 23.5607 -101.9374 147° Southeast  Level Estimated
Thu 08:56:00 PM 23.4860 -101.8838 147° Southeast  Level Estimated
Thu 08:57:00 PM 23.4114 -101.8301 147° Southeast  Level Estimated
Thu 08:58:00 PM 23.3368 -101.7766 147° Southeast  Level Estimated
Thu 08:59:00 PM 23.2621 -101.7231 147° Southeast  Level Estimated
Thu 09:00:00 PM 23.1874 -101.6697 147° Southeast  Level Estimated
Thu 09:01:00 PM 23.1127 -101.6163 147° Southeast  Level Estimated
Thu 09:02:00 PM 23.0379 -101.5630 147° Southeast  Level Estimated
Thu 09:03:00 PM 22.9632 -101.5098 147° Southeast  Level Estimated
Thu 09:04:00 PM 22.8884 -101.4566 147° Southeast  Level Estimated
Thu 09:05:00 PM 22.8136 -101.4034 147° Southeast  Level Estimated
Thu 09:06:00 PM 22.7388 -101.3503 147° Southeast  Level Estimated
Thu 09:07:00 PM 22.6640 -101.2973 147° Southeast  Level Estimated
Thu 09:08:00 PM 22.5892 -101.2443 147° Southeast  Level Estimated
Thu 09:09:00 PM 22.5143 -101.1914 147° Southeast  Level Estimated
Thu 09:10:00 PM 22.4394 -101.1386 147° Southeast  Level Estimated
Thu 09:11:00 PM 22.3645 -101.0858 147° Southeast  Level Estimated
Thu 09:12:00 PM 22.2896 -101.0331 147° Southeast  Level Estimated
Thu 09:13:00 PM 22.2147 -100.9804 147° Southeast  Level Estimated
Thu 09:14:00 PM 22.1398 -100.9278 147° Southeast  Level Estimated
Thu 09:15:00 PM 22.0648 -100.8752 147° Southeast  Level Estimated
Thu 09:16:00 PM 21.9898 -100.8227 147° Southeast  Level Estimated
Thu 09:17:00 PM 21.9149 -100.7702 147° Southeast  Level Estimated
Thu 09:18:00 PM 21.8398 -100.7178 147° Southeast  Level Estimated
Thu 09:19:00 PM 21.7648 -100.6655 147° Southeast  Level Estimated
Thu 09:20:00 PM 21.6898 -100.6132 147° Southeast  Level Estimated
Thu 09:21:00 PM 21.6147 -100.5610 147° Southeast  Level Estimated
Thu 09:22:00 PM 21.5396 -100.5088 147° Southeast  Level Estimated
Thu 09:23:00 PM 21.4646 -100.4567 147° Southeast  Level Estimated
Thu 09:24:00 PM 21.3895 -100.4046 147° Southeast  Level Estimated
Thu 09:25:00 PM 21.3143 -100.3526 147° Southeast  Level Estimated
Thu 09:26:00 PM 21.2392 -100.3006 147° Southeast  Level Estimated
Thu 09:27:00 PM 21.1640 -100.2487 147° Southeast  Level Estimated
Thu 09:28:00 PM 21.0889 -100.1968 147° Southeast  Level Estimated
Thu 09:29:00 PM 21.0137 -100.1450 147° Southeast  Level Estimated
Thu 09:30:00 PM 20.9385 -100.0933 147° Southeast  Level Estimated
Thu 09:31:00 PM 20.8633 -100.0416 147° Southeast  Level Estimated
Thu 09:32:00 PM 20.7880 -99.9899 147° Southeast  Level Estimated
Thu 09:33:00 PM 20.7128 -99.9383 147° Southeast  Level Estimated
Thu 09:34:00 PM 20.6375 -99.8868 147° Southeast  Level Estimated
Thu 09:35:00 PM 20.5622 -99.8353 147° Southeast  Level Estimated
Thu 09:36:00 PM 20.4869 -99.7838 147° Southeast  Level Estimated
Thu 09:37:00 PM 20.4116 -99.7324 147° Southeast  Level Estimated
Thu 09:38:00 PM 20.3363 -99.6811 147° Southeast  Level Estimated
Thu 09:39:00 PM 20.2610 -99.6298 147° Southeast  Level Estimated
Thu 09:40:00 PM 20.1856 -99.5785 147° Southeast  Level Estimated
Thu 09:41:00 PM 20.1103 -99.5273 147° Southeast  Level Estimated
Thu 09:42:00 PM 20.0349 -99.4762 147° Southeast  Level Estimated
Thu 09:43:00 PM 19.9595 -99.4251 148° Southeast  Level Estimated
Thu 09:44:00 PM 19.8841 -99.3740 148° Southeast  Level Estimated
Thu 09:45:00 PM 19.8086 -99.3230 148° Southeast  Level Estimated
Thu 09:46:00 PM 19.7332 -99.2721 148° Southeast  Level Estimated
Thu 09:47:00 PM 19.6577 -99.2212 148° Southeast  Level Estimated
Thu 09:48:00 PM 19.5823 -99.1703 148° Southeast  Level Estimated
Thu 09:49:00 PM 19.5068 -99.1195 148° Southeast  Level Estimated
Thu 09:50:00 PM 19.4363 -99.0721 148° Southeast  Level Estimated
Thu 09:51:00 PM 19.4363 -99.0721 43° Northeast  Level Estimated
Thu 09:52:00 PM 19.4363 -99.0721 43° Northeast  Level Estimated
Thu 09:53:00 PM 19.4363 -99.0721 43° Northeast  Level Estimated
Thu 09:54:00 PM 19.4363 -99.0721 43° Northeast  Level Estimated
Thu 09:55:00 PM 19.4363 -99.0721 43° Northeast  Level Estimated
Thu 09:56:00 PM 19.4363 -99.0721 43° Northeast  Level Estimated
Thu 09:57:00 PM 19.4363 -99.0721 43° Northeast  Level Estimated
Thu 09:58:00 PM 19.4363 -99.0721 43° Northeast  Level Estimated
Thu 09:59:00 PM 19.4363 -99.0721 43° Northeast  Level Estimated
Thu 10:00:00 PM 19.4363 -99.0721 43° Northeast  Level Estimated
Thu 10:01:00 PM 19.4363 -99.0721 43° Northeast  Level Estimated
Thu 10:02:00 PM 19.4363 -99.0721 43° Northeast  Level Estimated
Thu 10:03:00 PM 19.4363 -99.0721 43° Northeast  Level Estimated
Thu 10:04:00 PM 19.4363 -99.0721 43° Northeast  Level Estimated
Thu 10:05:00 PM 19.4363 -99.0721 43° Northeast  Level Estimated
Thu 10:06:00 PM 19.4363 -99.0721 43° Northeast  Level Estimated

Login

Don't have an account? Register now (free) for customized features, flight alerts, and more!